createdAt,value
2018-11-05T00:02:16.342Z,37.10
2018-11-05T00:04:51.067Z,31.43
2018-11-05T00:07:25.764Z,34.13
2018-11-05T00:10:00.342Z,31.90
2018-11-05T00:12:34.938Z,35.03
2018-11-05T00:15:09.488Z,32.43
2018-11-05T00:17:43.875Z,29.93
2018-11-05T00:20:18.662Z,29.37
2018-11-05T00:22:53.334Z,37.23
2018-11-05T00:25:27.855Z,30.93
2018-11-05T00:28:02.794Z,28.20
2018-11-05T00:30:38.284Z,33.57
2018-11-05T00:33:13.107Z,30.87
2018-11-05T00:35:47.773Z,38.40
2018-11-05T00:38:22.337Z,30.27
2018-11-05T00:40:56.978Z,32.80
2018-11-05T00:43:31.875Z,37.37
2018-11-05T00:46:07.292Z,33.10
2018-11-05T00:48:41.859Z,36.53
2018-11-05T00:51:16.997Z,32.40
2018-11-05T00:53:52.878Z,32.17
2018-11-05T00:56:28.143Z,33.00
2018-11-05T00:59:02.740Z,30.67
2018-11-05T01:01:37.465Z,33.30
2018-11-05T01:04:11.960Z,29.17
2018-11-05T01:06:47.681Z,31.47
2018-11-05T01:09:22.179Z,33.70
2018-11-05T01:11:57.099Z,35.97
2018-11-05T01:14:31.541Z,31.23
2018-11-05T01:17:06.747Z,35.50
2018-11-05T01:19:41.310Z,35.63
2018-11-05T01:22:16.670Z,34.77
2018-11-05T01:24:51.479Z,34.23
2018-11-05T01:27:26.314Z,36.57
2018-11-05T01:30:02.033Z,32.13
2018-11-05T01:32:36.548Z,31.50
2018-11-05T01:35:12.476Z,35.27
2018-11-05T01:37:47.371Z,33.13
2018-11-05T01:40:22.646Z,34.77
2018-11-05T01:42:57.271Z,34.30
2018-11-05T01:45:31.867Z,34.10
2018-11-05T01:48:06.648Z,31.27
2018-11-05T01:50:41.218Z,32.50
2018-11-05T01:53:20.829Z,35.60
2018-11-05T01:55:55.382Z,33.67
2018-11-05T01:58:30.610Z,36.53
2018-11-05T02:01:05.355Z,39.97
2018-11-05T02:03:40.035Z,39.93
2018-11-05T02:06:14.742Z,38.53
2018-11-05T02:08:49.600Z,37.77
2018-11-05T02:11:25.057Z,34.13
2018-11-05T02:13:59.743Z,38.17
2018-11-05T02:16:35.419Z,38.57
2018-11-05T02:19:10.119Z,38.27
2018-11-05T02:21:44.910Z,39.33
2018-11-05T02:24:19.803Z,33.63
2018-11-05T02:26:54.415Z,39.53
2018-11-05T02:29:29.095Z,45.43
2018-11-05T02:32:04.052Z,37.90
2018-11-05T02:34:38.649Z,38.00
2018-11-05T02:37:13.256Z,37.57
2018-11-05T02:39:47.958Z,34.20
2018-11-05T02:42:22.636Z,36.57
2018-11-05T02:44:57.926Z,38.30
2018-11-05T02:47:39.001Z,35.07
2018-11-05T02:50:14.130Z,37.53
2018-11-05T02:52:48.904Z,43.77
2018-11-05T02:55:23.711Z,36.67
2018-11-05T02:57:58.497Z,36.93
2018-11-05T03:00:33.495Z,35.47
2018-11-05T03:03:08.254Z,37.27
2018-11-05T03:05:42.959Z,37.70
2018-11-05T03:08:20.406Z,38.00
2018-11-05T03:10:55.262Z,39.60
2018-11-05T03:13:30.004Z,40.77
2018-11-05T03:16:05.538Z,41.67
2018-11-05T03:18:41.366Z,39.03
2018-11-05T03:21:16.299Z,42.50
2018-11-05T03:26:36.136Z,43.20
2018-11-05T03:29:10.792Z,43.50
2018-11-05T03:31:45.702Z,44.20
2018-11-05T03:34:20.218Z,47.37
2018-11-05T03:36:55.122Z,40.47
2018-11-05T03:39:29.909Z,38.50
2018-11-05T03:42:05.096Z,46.30
2018-11-05T03:44:39.758Z,36.97
2018-11-05T03:47:15.055Z,40.17
2018-11-05T03:49:50.362Z,40.07
2018-11-05T03:52:25.263Z,39.33
2018-11-05T03:55:00.059Z,38.00
2018-11-05T03:57:34.818Z,40.73
2018-11-05T04:00:11.223Z,41.03
2018-11-05T04:02:45.942Z,41.67
2018-11-05T04:05:20.683Z,44.50
2018-11-05T04:07:55.324Z,47.83
2018-11-05T04:10:31.148Z,40.90
2018-11-05T04:13:05.874Z,40.77
2018-11-05T04:15:41.569Z,40.57
2018-11-05T04:18:15.957Z,49.60
2018-11-05T04:20:50.518Z,49.60
2018-11-05T04:23:24.947Z,45.10
2018-11-05T04:25:59.490Z,45.87
2018-11-05T04:31:39.569Z,44.93
2018-11-05T04:34:14.173Z,45.20
2018-11-05T04:36:48.921Z,46.17
2018-11-05T04:39:23.524Z,41.60
2018-11-05T04:41:57.929Z,45.43
2018-11-05T04:44:32.614Z,48.50
2018-11-05T04:47:07.243Z,45.40
2018-11-05T04:49:41.845Z,45.63
2018-11-05T04:52:16.353Z,52.77
2018-11-05T04:54:50.877Z,46.40
2018-11-05T04:57:25.525Z,45.73
2018-11-05T05:00:04.320Z,61.37
2018-11-05T05:02:40.220Z,52.50
2018-11-05T05:05:15.945Z,55.20
2018-11-05T05:07:50.357Z,62.43
2018-11-05T05:10:25.115Z,51.80
2018-11-05T05:12:59.542Z,60.00
2018-11-05T05:15:34.081Z,63.20
2018-11-05T05:18:08.714Z,64.27
2018-11-05T05:20:43.412Z,71.77
2018-11-05T05:23:17.793Z,61.03
2018-11-05T05:25:52.513Z,76.43
2018-11-05T05:28:27.048Z,72.37
2018-11-05T05:31:01.641Z,66.20
2018-11-05T05:33:36.545Z,64.83
2018-11-05T05:36:11.095Z,78.67
2018-11-05T05:38:45.799Z,72.17
2018-11-05T05:41:20.527Z,74.03
2018-11-05T05:43:55.314Z,83.73
2018-11-05T05:46:29.983Z,99.80
2018-11-05T05:49:05.312Z,93.73
2018-11-05T05:51:39.984Z,94.37
2018-11-05T05:54:14.421Z,89.37
2018-11-05T05:56:49.113Z,111.37
2018-11-05T05:59:23.604Z,93.93
2018-11-05T06:01:58.160Z,97.70
2018-11-05T06:04:32.806Z,104.17
2018-11-05T06:07:07.272Z,90.93
2018-11-05T06:09:41.922Z,105.97
2018-11-05T06:12:16.585Z,105.27
2018-11-05T06:14:51.265Z,93.03
2018-11-05T06:17:25.840Z,91.80
2018-11-05T06:20:00.707Z,85.17
2018-11-05T06:22:35.187Z,88.37
2018-11-05T06:25:09.775Z,86.00
2018-11-05T06:27:44.358Z,94.67
2018-11-05T06:30:20.381Z,84.40
2018-11-05T06:32:54.949Z,84.13
2018-11-05T06:35:29.676Z,101.23
2018-11-05T06:38:04.297Z,110.67
2018-11-05T06:40:38.942Z,89.37
2018-11-05T06:43:13.528Z,102.13
2018-11-05T06:45:48.077Z,98.17
2018-11-05T06:48:22.872Z,92.10
2018-11-05T06:50:57.476Z,98.47
2018-11-05T06:53:32.040Z,104.67
2018-11-05T06:56:06.809Z,94.00
2018-11-05T06:58:41.341Z,107.90
2018-11-05T07:01:15.942Z,103.53
2018-11-05T07:03:50.453Z,97.23
2018-11-05T07:06:25.207Z,97.47
2018-11-05T07:08:59.869Z,84.80
2018-11-05T07:11:34.553Z,97.20
2018-11-05T07:14:09.275Z,91.47
2018-11-05T07:16:43.872Z,89.93
2018-11-05T07:19:18.666Z,104.63
2018-11-05T07:21:53.142Z,98.97
2018-11-05T07:24:27.665Z,106.33
2018-11-05T07:27:02.246Z,100.23
2018-11-05T07:29:36.793Z,95.90
2018-11-05T07:32:11.304Z,94.43
2018-11-05T07:34:45.733Z,88.93
2018-11-05T07:37:20.314Z,100.37
2018-11-05T07:39:54.787Z,85.00
2018-11-05T07:42:29.358Z,96.83
2018-11-05T07:45:04.450Z,90.87
2018-11-05T07:47:39.019Z,102.60
2018-11-05T07:50:14.844Z,86.97
2018-11-05T07:52:49.735Z,89.13
2018-11-05T07:55:24.304Z,86.03
2018-11-05T07:57:58.833Z,101.10
2018-11-05T08:00:38.684Z,93.03
2018-11-05T08:03:13.366Z,96.47
2018-11-05T08:05:47.729Z,88.97
2018-11-05T08:08:22.461Z,96.33
2018-11-05T08:10:57.495Z,93.50
2018-11-05T08:13:33.291Z,88.07
2018-11-05T08:16:08.095Z,89.20
2018-11-05T08:18:42.788Z,92.23
2018-11-05T08:21:17.433Z,106.90
2018-11-05T08:23:52.018Z,101.73
2018-11-05T08:26:26.634Z,100.30
2018-11-05T08:29:01.089Z,90.83
2018-11-05T08:31:35.820Z,92.13
2018-11-05T08:34:10.394Z,90.30
2018-11-05T08:36:44.968Z,76.90
2018-11-05T08:39:19.505Z,90.20
2018-11-05T08:41:54.005Z,87.30
2018-11-05T08:44:28.678Z,76.23
2018-11-05T08:47:03.273Z,77.43
2018-11-05T08:49:37.796Z,75.07
2018-11-05T08:52:12.448Z,68.10
2018-11-05T08:54:47.095Z,67.23
2018-11-05T08:57:21.791Z,69.67
2018-11-05T08:59:56.476Z,63.27
2018-11-05T09:02:31.252Z,57.83
2018-11-05T09:05:06.082Z,70.90
2018-11-05T09:07:40.722Z,66.03
2018-11-05T09:10:15.373Z,62.63
2018-11-05T09:12:49.920Z,57.10
2018-11-05T09:15:24.577Z,61.73
2018-11-05T09:17:59.155Z,54.83
2018-11-05T09:20:33.719Z,56.97
2018-11-05T09:23:08.425Z,57.97
2018-11-05T09:25:42.928Z,63.33
2018-11-05T09:28:17.505Z,60.80
2018-11-05T09:30:52.110Z,57.60
2018-11-05T09:33:26.614Z,54.83
2018-11-05T09:36:01.292Z,56.37
2018-11-05T09:38:35.918Z,60.30
2018-11-05T09:41:10.425Z,58.93
2018-11-05T09:43:45.036Z,56.63
2018-11-05T09:46:19.612Z,55.60
2018-11-05T09:48:54.045Z,63.37
2018-11-05T09:51:28.660Z,46.07
2018-11-05T09:54:03.169Z,51.53
2018-11-05T09:56:37.588Z,59.30
2018-11-05T09:59:12.320Z,65.83
2018-11-05T10:01:46.893Z,57.83
2018-11-05T10:04:21.575Z,56.37
2018-11-05T10:06:56.157Z,62.97
2018-11-05T10:09:30.851Z,64.47
2018-11-05T10:12:05.520Z,62.27
2018-11-05T10:14:40.300Z,71.33
2018-11-05T10:17:14.841Z,67.77
2018-11-05T10:19:49.356Z,76.33
2018-11-05T10:22:23.976Z,73.27
2018-11-05T10:24:58.620Z,70.87
2018-11-05T10:27:32.993Z,70.77
2018-11-05T10:30:11.321Z,77.07
2018-11-05T10:32:45.905Z,73.93
2018-11-05T10:35:20.448Z,65.33
2018-11-05T10:37:55.140Z,75.73
2018-11-05T10:40:29.941Z,66.17
2018-11-05T10:43:10.936Z,80.50
2018-11-05T10:45:45.441Z,73.53
2018-11-05T10:48:20.052Z,71.40
2018-11-05T10:50:54.602Z,67.60
2018-11-05T10:53:29.216Z,64.57
2018-11-05T10:56:03.817Z,71.97
2018-11-05T10:58:38.343Z,70.43
2018-11-05T11:01:13.536Z,63.40
2018-11-05T11:03:53.579Z,71.03
2018-11-05T11:06:28.158Z,69.77
2018-11-05T11:09:02.933Z,82.03
2018-11-05T11:11:37.311Z,79.47
2018-11-05T11:14:11.921Z,74.73
2018-11-05T11:16:46.675Z,77.40
2018-11-05T11:19:21.327Z,80.60
2018-11-05T11:21:55.849Z,73.97
2018-11-05T11:24:30.444Z,80.03
2018-11-05T11:27:05.267Z,74.47
2018-11-05T11:29:39.789Z,75.43
2018-11-05T11:32:14.346Z,76.30
2018-11-05T11:34:48.856Z,86.70
2018-11-05T11:37:23.515Z,72.87
2018-11-05T11:42:39.767Z,78.77
2018-11-05T11:45:15.213Z,83.87
2018-11-05T11:47:49.738Z,80.83
2018-11-05T11:50:24.628Z,70.93
2018-11-05T11:52:59.347Z,73.57
2018-11-05T11:55:34.128Z,69.33
2018-11-05T11:58:08.784Z,69.50
2018-11-05T12:00:43.541Z,71.50
2018-11-05T12:03:18.241Z,69.17
2018-11-05T12:05:52.922Z,75.10
2018-11-05T12:08:27.327Z,73.70
2018-11-05T12:11:02.019Z,73.70
2018-11-05T12:13:36.685Z,73.13
2018-11-05T12:16:11.434Z,76.70
2018-11-05T12:18:46.061Z,82.80
2018-11-05T12:21:20.853Z,72.40
2018-11-05T12:23:55.370Z,68.53
2018-11-05T12:26:29.964Z,68.30
2018-11-05T12:29:04.555Z,65.53
2018-11-05T12:31:39.193Z,72.80
2018-11-05T12:34:13.857Z,84.57
2018-11-05T12:36:48.457Z,77.00
2018-11-05T12:39:23.165Z,74.87
2018-11-05T12:41:57.736Z,69.43
2018-11-05T12:44:32.469Z,73.93
2018-11-05T12:47:06.982Z,65.40
2018-11-05T12:49:41.496Z,70.50
2018-11-05T12:52:16.033Z,67.90
2018-11-05T12:54:50.740Z,66.70
2018-11-05T12:57:25.430Z,72.60
2018-11-05T13:00:00.068Z,65.80
2018-11-05T13:02:34.696Z,67.53
2018-11-05T13:05:10.134Z,78.13
2018-11-05T13:07:44.643Z,70.70
2018-11-05T13:10:19.333Z,67.37
2018-11-05T13:12:53.974Z,73.60
2018-11-05T13:15:28.773Z,84.53
2018-11-05T13:18:03.061Z,70.80
2018-11-05T13:20:37.477Z,79.47
2018-11-05T13:23:12.114Z,78.10
2018-11-05T13:25:46.907Z,83.53
2018-11-05T13:28:21.449Z,88.80
2018-11-05T13:30:56.033Z,85.73
2018-11-05T13:33:30.680Z,83.83
2018-11-05T13:36:05.481Z,77.40
2018-11-05T13:38:40.110Z,84.37
2018-11-05T13:41:14.687Z,83.33
2018-11-05T13:43:49.158Z,83.80
2018-11-05T13:46:24.019Z,82.47
2018-11-05T13:48:58.749Z,83.33
2018-11-05T13:51:33.145Z,92.20
2018-11-05T13:54:07.675Z,81.13
2018-11-05T13:56:42.136Z,79.80
2018-11-05T13:59:16.700Z,75.60
2018-11-05T14:01:51.332Z,74.63
2018-11-05T14:04:25.895Z,81.73
2018-11-05T14:07:00.500Z,78.57
2018-11-05T14:09:35.053Z,83.40
2018-11-05T14:12:09.683Z,74.20
2018-11-05T14:14:44.278Z,81.20
2018-11-05T14:17:18.884Z,78.73
2018-11-05T14:19:53.404Z,77.13
2018-11-05T14:22:27.808Z,82.57
2018-11-05T14:25:02.384Z,96.23
2018-11-05T14:27:37.019Z,68.73
2018-11-05T14:30:12.460Z,93.50
2018-11-05T14:32:47.842Z,82.00
2018-11-05T14:35:22.509Z,91.77
2018-11-05T14:37:57.220Z,106.13
2018-11-05T14:40:31.834Z,91.97
2018-11-05T14:43:06.509Z,95.17
2018-11-05T14:45:41.073Z,102.00
2018-11-05T14:48:15.688Z,94.50
2018-11-05T14:50:50.349Z,106.27
2018-11-05T14:53:24.827Z,86.60
2018-11-05T14:55:59.533Z,102.90
2018-11-05T14:58:34.232Z,91.03
2018-11-05T15:01:08.764Z,102.27
2018-11-05T15:03:43.348Z,98.13
2018-11-05T15:06:17.863Z,99.23
2018-11-05T15:08:52.400Z,97.63
2018-11-05T15:11:27.089Z,101.80
2018-11-05T15:14:01.766Z,95.77
2018-11-05T15:16:36.230Z,104.67
2018-11-05T15:19:11.324Z,106.03
2018-11-05T15:21:45.545Z,107.23
2018-11-05T15:24:20.211Z,90.73
2018-11-05T15:26:55.052Z,111.00
2018-11-05T15:29:29.374Z,102.63
2018-11-05T15:32:04.038Z,100.37
2018-11-05T15:34:38.581Z,115.40
2018-11-05T15:37:13.313Z,115.70
2018-11-05T15:39:47.932Z,120.97
2018-11-05T15:42:22.684Z,111.80
2018-11-05T15:44:57.349Z,108.53
2018-11-05T15:47:32.064Z,121.80
2018-11-05T15:50:09.168Z,124.87
2018-11-05T15:52:44.057Z,113.07
2018-11-05T15:55:18.374Z,127.03
2018-11-05T15:57:52.853Z,122.60
2018-11-05T16:00:27.432Z,133.13
2018-11-05T16:03:02.464Z,117.27
2018-11-05T16:05:37.145Z,121.77
2018-11-05T16:08:11.673Z,126.00
2018-11-05T16:10:46.257Z,118.50
2018-11-05T16:13:20.614Z,118.27
2018-11-05T16:15:55.392Z,122.47
2018-11-05T16:18:29.970Z,138.60
2018-11-05T16:21:04.525Z,137.77
2018-11-05T16:23:39.164Z,122.57
2018-11-05T16:26:13.821Z,155.60
2018-11-05T16:28:48.272Z,137.53
2018-11-05T16:31:22.761Z,150.73
2018-11-05T16:33:57.418Z,148.00
2018-11-05T16:36:32.082Z,154.50
2018-11-05T16:39:09.157Z,152.93
2018-11-05T16:41:43.664Z,148.03
2018-11-05T16:44:18.296Z,152.17
2018-11-05T16:46:52.790Z,156.63
2018-11-05T16:49:27.389Z,154.43
2018-11-05T16:52:01.975Z,151.80
2018-11-05T16:54:36.535Z,164.50
2018-11-05T16:57:11.185Z,147.37
2018-11-05T16:59:45.685Z,162.33
2018-11-05T17:02:23.659Z,154.03
2018-11-05T17:04:57.827Z,147.73
2018-11-05T17:07:32.385Z,167.03
2018-11-05T17:10:08.145Z,159.33
2018-11-05T17:12:43.537Z,163.17
2018-11-05T17:15:18.090Z,148.93
2018-11-05T17:17:52.724Z,157.63
2018-11-05T17:20:27.466Z,153.47
2018-11-05T17:23:01.896Z,159.60
2018-11-05T17:25:36.670Z,153.60
2018-11-05T17:28:11.251Z,157.57
2018-11-05T17:30:45.731Z,158.87
2018-11-05T17:33:20.310Z,155.40
2018-11-05T17:35:54.949Z,176.90
2018-11-05T17:38:29.453Z,160.20
2018-11-05T17:41:04.097Z,177.00
2018-11-05T17:43:38.653Z,161.03
2018-11-05T17:46:13.191Z,168.57
2018-11-05T17:48:47.962Z,170.50
2018-11-05T17:51:22.481Z,177.97
2018-11-05T17:53:57.009Z,164.57
2018-11-05T17:56:31.527Z,173.47
2018-11-05T17:59:06.738Z,164.20
2018-11-05T18:01:41.196Z,153.53
2018-11-05T18:04:16.104Z,169.13
2018-11-05T18:06:50.536Z,168.87
2018-11-05T18:09:25.052Z,163.23
2018-11-05T18:11:59.588Z,158.20
2018-11-05T18:14:34.191Z,167.50
2018-11-05T18:17:09.018Z,157.53
2018-11-05T18:19:43.656Z,164.40
2018-11-05T18:22:18.170Z,154.87
2018-11-05T18:24:52.923Z,159.60
2018-11-05T18:27:27.458Z,174.80
2018-11-05T18:30:02.152Z,151.93
2018-11-05T18:32:36.751Z,169.23
2018-11-05T18:35:12.453Z,157.70
2018-11-05T18:37:48.744Z,152.77
2018-11-05T18:40:23.316Z,168.10
2018-11-05T18:42:58.068Z,153.00
2018-11-05T18:45:32.800Z,161.20
2018-11-05T18:48:07.379Z,159.77
2018-11-05T18:50:42.163Z,178.27
2018-11-05T18:53:16.801Z,172.77
2018-11-05T18:55:51.439Z,155.77
2018-11-05T18:58:26.073Z,172.67
2018-11-05T19:01:00.779Z,171.30
2018-11-05T19:03:35.379Z,158.20
2018-11-05T19:06:10.069Z,164.07
2018-11-05T19:08:44.589Z,145.03
2018-11-05T19:11:19.317Z,158.53
2018-11-05T19:13:54.049Z,144.67
2018-11-05T19:16:28.609Z,138.97
2018-11-05T19:19:03.282Z,153.60
2018-11-05T19:21:37.751Z,137.53
2018-11-05T19:24:12.524Z,147.07
2018-11-05T19:26:47.077Z,151.63
2018-11-05T19:29:21.810Z,156.27
2018-11-05T19:31:56.390Z,149.63
2018-11-05T19:34:31.180Z,143.40
2018-11-05T19:37:05.897Z,148.40
2018-11-05T19:39:40.435Z,140.37
2018-11-05T19:42:15.076Z,151.60
2018-11-05T19:44:49.584Z,150.13
2018-11-05T19:47:24.104Z,151.57
2018-11-05T19:49:58.691Z,147.97
2018-11-05T19:52:33.174Z,151.97
2018-11-05T19:55:08.489Z,165.93
2018-11-05T19:57:43.822Z,169.63
2018-11-05T20:00:24.298Z,172.27
2018-11-05T20:03:00.058Z,184.57
2018-11-05T20:05:34.773Z,181.87
2018-11-05T20:08:09.373Z,169.23
2018-11-05T20:10:44.024Z,172.43
2018-11-05T20:13:18.671Z,174.37
2018-11-05T20:15:53.196Z,176.53
2018-11-05T20:18:27.728Z,173.10
2018-11-05T20:21:02.146Z,160.60
2018-11-05T20:23:36.738Z,156.77
2018-11-05T20:26:11.402Z,156.87
2018-11-05T20:28:45.895Z,168.37
2018-11-05T20:31:20.749Z,161.43
2018-11-05T20:33:55.166Z,163.40
2018-11-05T20:36:29.644Z,167.97
2018-11-05T20:39:06.367Z,173.53
2018-11-05T20:41:41.122Z,175.43
2018-11-05T20:44:15.665Z,175.47
2018-11-05T20:46:50.374Z,166.27
2018-11-05T20:49:25.118Z,225.20
2018-11-05T20:51:59.746Z,189.67
2018-11-05T20:54:34.708Z,172.60
2018-11-05T20:57:09.236Z,168.53
2018-11-05T20:59:43.873Z,241.53
2018-11-05T21:02:18.531Z,178.73
2018-11-05T21:04:53.107Z,179.53
2018-11-05T21:07:40.738Z,204.47
2018-11-05T21:10:15.595Z,203.33
2018-11-05T21:12:50.162Z,249.30
2018-11-05T21:15:24.667Z,273.47
2018-11-05T21:17:59.282Z,234.73
2018-11-05T21:20:33.826Z,219.47
2018-11-05T21:23:08.390Z,178.33
2018-11-05T21:25:42.920Z,197.77
2018-11-05T21:28:17.600Z,211.03
2018-11-05T21:30:52.276Z,227.23
2018-11-05T21:33:26.689Z,202.53
2018-11-05T21:36:01.321Z,186.53
2018-11-05T21:38:36.014Z,184.60
2018-11-05T21:41:52.018Z,189.70
2018-11-05T21:44:26.642Z,212.10
2018-11-05T21:47:01.402Z,165.97
2018-11-05T21:49:36.031Z,209.47
2018-11-05T21:52:10.670Z,156.93
2018-11-05T21:54:45.662Z,160.00
2018-11-05T21:57:20.367Z,185.23
2018-11-05T21:59:55.085Z,208.17
2018-11-05T22:02:29.767Z,192.03
2018-11-05T22:05:05.196Z,301.17
2018-11-05T22:07:39.914Z,161.70
2018-11-05T22:10:14.455Z,170.13
2018-11-05T22:12:49.285Z,207.30
2018-11-05T22:15:23.913Z,249.20
2018-11-05T22:17:58.835Z,327.80
2018-11-05T22:20:33.336Z,170.90
2018-11-05T22:23:07.762Z,484.97
2018-11-05T22:25:42.254Z,333.47
2018-11-05T22:28:16.880Z,242.97
2018-11-05T22:30:51.621Z,222.50
2018-11-05T22:33:25.992Z,240.60
2018-11-05T22:36:00.478Z,186.03
2018-11-05T22:38:35.118Z,204.23
2018-11-05T22:41:09.665Z,207.07
2018-11-05T22:43:44.430Z,278.33
2018-11-05T22:46:19.018Z,346.50
2018-11-05T22:48:53.599Z,182.90
2018-11-05T22:51:28.201Z,168.67
2018-11-05T22:54:02.861Z,265.17
2018-11-05T22:56:37.390Z,180.53
2018-11-05T22:59:12.043Z,177.10
2018-11-05T23:01:53.190Z,196.43
2018-11-05T23:04:34.460Z,240.27
2018-11-05T23:07:09.018Z,367.57
2018-11-05T23:09:43.582Z,233.63
2018-11-05T23:12:18.109Z,124.30
2018-11-05T23:14:52.740Z,149.43
2018-11-05T23:17:27.232Z,135.87
2018-11-05T23:20:01.807Z,174.33
2018-11-05T23:22:36.394Z,124.97
2018-11-05T23:25:11.226Z,260.00
2018-11-05T23:27:45.806Z,204.80
2018-11-05T23:30:20.277Z,174.73
2018-11-05T23:32:55.062Z,124.30
2018-11-05T23:35:29.651Z,163.83
2018-11-05T23:38:04.282Z,255.97
2018-11-05T23:40:38.744Z,165.53
2018-11-05T23:43:13.579Z,136.23
2018-11-05T23:45:48.175Z,161.10
2018-11-05T23:48:22.844Z,124.97
2018-11-05T23:50:57.560Z,126.07
2018-11-05T23:53:32.194Z,133.27
2018-11-05T23:56:06.709Z,126.60
2018-11-05T23:58:41.382Z,126.53
